Time;durP1;ratioP1;P1;durP2;ratioP2;P2;SDS_P1;SDS_P2;PMS_P1;PMS_P2;Temp;Humidity;BMP_temperature;BMP_pressure;BME280_temperature;BME280_humidity;BME280_pressure;Samples;Min_cycle;Max_cycle;Signal;HPM_P1;HPM_P2
2022/10/12 00:01:44;;;;;;;26.13;15.60;;;;;;;13.53;79.36;98965.63;7388327;19;20040;-72
2022/10/12 00:04:11;;;;;;;24.23;15.98;;;;;;;13.50;79.53;98968.59;7395256;19;20027;-72
2022/10/12 00:06:38;;;;;;;22.20;15.65;;;;;;;13.50;79.41;98966.78;7389761;19;20018;-72
2022/10/12 00:09:05;;;;;;;24.25;15.93;;;;;;;13.47;79.29;98975.09;7391064;19;20010;-72
2022/10/12 00:11:31;;;;;;;20.17;14.75;;;;;;;13.41;79.76;98973.06;7388891;19;20014;-71
2022/10/12 00:13:59;;;;;;;19.25;15.10;;;;;;;13.38;79.68;98978.72;7389685;19;20090;-71
2022/10/12 00:16:30;;;;;;;29.08;16.05;;;;;;;13.38;79.73;98976.88;7389501;19;20039;-72
2022/10/12 00:18:57;;;;;;;24.70;15.15;;;;;;;13.43;79.82;98967.56;7391652;19;20094;-72
2022/10/12 00:21:25;;;;;;;26.90;15.80;;;;;;;13.48;80.18;98974.09;7390722;19;20095;-71
2022/10/12 00:23:51;;;;;;;23.55;15.82;;;;;;;13.54;80.13;98969.97;7387446;19;20994;-72
2022/10/12 00:26:20;;;;;;;24.38;16.38;;;;;;;13.56;79.97;98968.81;7388850;19;20010;-72
2022/10/12 00:28:52;;;;;;;30.90;17.20;;;;;;;13.59;79.76;98960.53;7392318;19;20010;-71
2022/10/12 00:31:19;;;;;;;26.73;16.50;;;;;;;13.61;79.87;98966.50;7388630;19;20022;-72
2022/10/12 00:33:47;;;;;;;24.52;16.63;;;;;;;13.64;79.89;98965.38;7386265;19;20056;-71
2022/10/12 00:36:29;;;;;;;22.80;16.63;;;;;;;13.69;79.64;98968.38;7386829;19;20101;-71
2022/10/12 00:38:55;;;;;;;25.65;15.88;;;;;;;13.68;79.59;98963.19;7388768;19;20014;-71
2022/10/12 00:41:25;;;;;;;26.70;16.20;;;;;;;13.70;79.79;98963.88;7391616;19;20014;-72
2022/10/12 00:43:53;;;;;;;23.75;15.48;;;;;;;13.76;79.53;98953.41;7387869;19;20021;-72
2022/10/12 00:46:39;;;;;;;25.20;16.35;;;;;;;13.78;79.45;98956.75;7390280;19;20034;-72
2022/10/12 00:49:18;;;;;;;22.98;15.95;;;;;;;13.81;79.28;98963.56;7390653;19;20007;-72
2022/10/12 00:51:48;;;;;;;24.05;15.48;;;;;;;13.79;79.20;98957.59;7389228;19;20014;-72
2022/10/12 00:54:18;;;;;;;26.08;15.07;;;;;;;13.77;79.15;98954.25;7389973;19;20493;-72
2022/10/12 00:56:46;;;;;;;26.15;16.02;;;;;;;13.78;79.29;98963.91;7390390;19;20011;-72
2022/10/12 00:59:19;;;;;;;24.27;16.42;;;;;;;13.75;79.07;98954.44;7387532;19;20038;-72
2022/10/12 01:01:46;;;;;;;25.30;15.13;;;;;;;13.70;79.09;98955.91;7385568;19;20014;-71
2022/10/12 01:04:13;;;;;;;21.77;14.85;;;;;;;13.70;79.11;98954.06;7389628;19;20339;-71
2022/10/12 01:06:40;;;;;;;26.38;15.52;;;;;;;13.64;78.94;98954.72;7389026;19;20019;-71
2022/10/12 01:09:06;;;;;;;26.38;15.80;;;;;;;13.55;79.34;98951.19;7390756;19;20018;-72
2022/10/12 01:11:33;;;;;;;24.02;16.05;;;;;;;13.52;79.31;98953.34;7389341;19;20022;-71
2022/10/12 01:14:00;;;;;;;24.88;16.27;;;;;;;13.49;79.39;98954.50;7388161;19;20042;-72
2022/10/12 01:16:53;;;;;;;25.15;14.93;;;;;;;13.49;79.55;98954.50;7391388;19;20476;-71
2022/10/12 01:19:41;;;;;;;23.02;15.45;;;;;;;13.46;79.60;98960.13;7388081;19;20026;-72
2022/10/12 01:22:12;;;;;;;20.25;15.98;;;;;;;13.48;79.43;98955.50;7384915;19;20026;-72
2022/10/12 01:24:53;;;;;;;20.40;15.20;;;;;;;13.45;79.30;98955.78;7386583;19;20027;-72
2022/10/12 01:27:46;;;;;;;22.92;15.07;;;;;;;13.33;79.26;98949.13;7387110;19;20014;-71
2022/10/12 01:30:23;;;;;;;28.77;15.27;;;;;;;13.27;79.53;98947.06;7388613;19;20014;-71
2022/10/12 01:32:52;;;;;;;22.40;15.02;;;;;;;13.18;79.63;98948.84;7385940;19;20042;-71
2022/10/12 01:35:28;;;;;;;23.48;15.13;;;;;;;13.15;79.85;98947.31;7388203;19;20018;-71
2022/10/12 01:38:00;;;;;;;20.00;14.25;;;;;;;13.16;79.68;98942.84;7388764;19;20098;-71
2022/10/12 01:40:32;;;;;;;;;;;;;;;13.18;79.92;98940.88;7390565;19;20019;-71
2022/10/12 01:43:00;;;;;;;24.33;14.83;;;;;;;13.14;79.93;98945.66;7384771;19;19938;-72
2022/10/12 01:45:26;;;;;;;21.23;15.02;;;;;;;13.15;79.94;98946.50;7389910;19;20044;-71
2022/10/12 01:47:54;;;;;;;20.60;15.35;;;;;;;13.07;80.19;98944.63;7388032;19;20041;-72
2022/10/12 01:50:24;;;;;;;20.23;15.38;;;;;;;13.06;80.10;98942.13;7388746;19;20033;-71
2022/10/12 01:53:00;;;;;;;21.88;14.40;;;;;;;13.02;80.14;98946.91;7383566;19;20364;-72
2022/10/12 01:55:49;;;;;;;21.77;15.85;;;;;;;13.05;80.04;98948.44;7387292;19;20603;-71
2022/10/12 01:58:38;;;;;;;22.13;15.50;;;;;;;13.02;79.91;98946.09;7386695;19;20026;-72
2022/10/12 02:01:24;;;;;;;26.83;16.42;;;;;;;12.95;80.09;98941.41;7386960;19;20048;-72
2022/10/12 02:04:10;;;;;;;27.15;16.55;;;;;;;12.90;80.18;98934.88;7386980;19;20019;-71
2022/10/12 02:06:41;;;;;;;23.48;16.17;;;;;;;12.86;80.26;98934.38;7387169;19;20019;-72
2022/10/12 02:09:17;;;;;;;21.40;15.18;;;;;;;12.83;80.50;98931.22;7385644;19;20022;-72
2022/10/12 02:11:46;;;;;;;20.67;15.98;;;;;;;12.71;80.43;98935.94;7385474;19;20019;-72
2022/10/12 02:14:19;;;;;;;23.35;15.45;;;;;;;12.67;80.10;98927.47;7388058;19;20060;-71
2022/10/12 02:16:54;;;;;;;23.60;15.95;;;;;;;12.60;80.18;98930.88;7387672;19;20023;-71
2022/10/12 02:19:27;;;;;;;22.67;15.00;;;;;;;12.50;80.47;98937.09;7386472;19;20022;-72
2022/10/12 02:21:54;;;;;;;;;;;;;;;12.47;80.45;98926.81;7385479;19;20018;-72
2022/10/12 02:24:22;;;;;;;23.20;14.38;;;;;;;12.46;80.54;98932.28;7386661;19;19935;-71
2022/10/12 02:26:51;;;;;;;29.20;15.68;;;;;;;12.44;80.80;98928.94;7384909;19;20018;-71
2022/10/12 02:29:21;;;;;;;23.33;16.58;;;;;;;12.51;80.87;98935.31;7385806;19;20798;-72
2022/10/12 02:32:05;;;;;;;25.95;15.63;;;;;;;12.46;80.92;98932.28;7385543;19;20481;-71
2022/10/12 02:34:44;;;;;;;31.00;16.63;;;;;;;12.51;80.74;98933.47;7384414;19;20031;-71
2022/10/12 02:37:22;;;;;;;26.73;17.85;;;;;;;12.49;81.18;98931.97;7383731;19;20497;-71
2022/10/12 02:39:53;;;;;;;21.70;15.90;;;;;;;12.47;81.24;98928.63;7386612;19;20034;-71
2022/10/12 02:42:26;;;;;;;25.35;17.20;;;;;;;12.59;81.18;98930.06;7384375;19;20010;-71
2022/10/12 02:44:52;;;;;;;;;;;;;;;12.67;81.31;98938.06;7382804;19;20074;-72
2022/10/12 02:47:20;;;;;;;22.35;15.65;;;;;;;12.76;81.32;98938.97;7387790;19;20374;-71
2022/10/12 02:49:47;;;;;;;27.77;16.70;;;;;;;12.82;81.36;98929.53;7393113;19;20011;-72
2022/10/12 02:52:14;;;;;;;26.70;15.98;;;;;;;12.87;81.36;98928.06;7391186;19;20499;-72
2022/10/12 02:54:40;;;;;;;19.58;14.57;;;;;;;12.92;81.15;98924.94;7395592;19;20018;-72
2022/10/12 02:57:07;;;;;;;24.85;15.85;;;;;;;12.96;80.91;98926.31;7395243;19;20708;-72
2022/10/12 02:59:34;;;;;;;22.55;16.98;;;;;;;12.95;80.96;98924.63;7393713;19;20034;-72
2022/10/12 03:02:01;;;;;;;21.70;16.58;;;;;;;12.90;81.06;98919.81;7392770;19;20529;-72
2022/10/12 03:04:27;;;;;;;27.05;16.65;;;;;;;12.95;81.19;98919.31;7393400;19;20018;-72
2022/10/12 03:06:54;;;;;;;25.30;17.63;;;;;;;13.03;80.99;98924.66;7393209;19;20098;-71
2022/10/12 03:09:21;;;;;;;21.02;15.93;;;;;;;13.05;81.14;98928.00;7395532;19;20060;-72
2022/10/12 03:11:47;;;;;;;26.45;15.82;;;;;;;13.05;81.06;98928.00;7393939;19;20043;-72
2022/10/12 03:14:15;;;;;;;23.73;15.68;;;;;;;13.05;80.85;98927.19;7394107;19;20015;-71
2022/10/12 03:16:42;;;;;;;24.58;17.23;;;;;;;13.00;80.92;98927.66;7395698;19;20413;-71
2022/10/12 03:19:09;;;;;;;25.02;16.85;;;;;;;12.99;80.89;98926.00;7394020;19;20050;-71
2022/10/12 03:21:36;;;;;;;25.98;16.38;;;;;;;13.04;80.75;98928.19;7396573;19;20023;-71
2022/10/12 03:24:03;;;;;;;22.35;16.85;;;;;;;13.04;80.63;98934.31;7392770;19;20110;-71
2022/10/12 03:26:29;;;;;;;25.98;17.10;;;;;;;13.03;80.59;98940.59;7393648;19;20035;-71
2022/10/12 03:28:56;;;;;;;23.70;17.90;;;;;;;13.04;80.60;98941.47;7390595;19;20019;-71
2022/10/12 03:31:23;;;;;;;25.60;18.42;;;;;;;13.01;80.80;98933.81;7393992;19;20478;-71
2022/10/12 03:33:49;;;;;;;24.52;17.63;;;;;;;12.96;80.68;98935.09;7390471;19;20022;-71
2022/10/12 03:36:16;;;;;;;28.33;18.98;;;;;;;12.99;80.98;98933.13;7391480;19;20018;-71
2022/10/12 03:38:43;;;;;;;25.23;14.98;;;;;;;13.00;81.02;98932.97;7394454;19;20042;-71
2022/10/12 03:41:10;;;;;;;18.30;14.30;;;;;;;13.04;80.70;98941.47;7393263;19;20080;-71
2022/10/12 03:43:37;;;;;;;20.63;14.27;;;;;;;12.96;80.81;98939.59;7392658;19;20015;-71
2022/10/12 03:46:03;;;;;;;16.88;14.15;;;;;;;12.95;80.84;98945.88;7393854;19;20019;-71
2022/10/12 03:48:30;;;;;;;19.25;14.63;;;;;;;12.92;80.94;98940.88;7391023;19;20043;-71
2022/10/12 03:50:57;;;;;;;21.85;15.27;;;;;;;12.91;80.76;98945.38;7393628;19;20018;-71
2022/10/12 03:53:24;;;;;;;22.23;14.23;;;;;;;12.93;80.53;98945.22;7387811;19;20926;-71
2022/10/12 03:55:50;;;;;;;16.60;14.43;;;;;;;12.91;80.65;98941.88;7392197;19;20025;-71
2022/10/12 03:58:17;;;;;;;22.10;14.55;;;;;;;12.86;80.76;98938.88;7391518;19;20419;-71
2022/10/12 04:00:44;;;;;;;18.40;15.38;;;;;;;12.89;80.70;98942.03;7392873;19;20014;-71
2022/10/12 04:03:10;;;;;;;21.27;15.68;;;;;;;12.94;80.56;98934.44;7389289;19;20538;-72
2022/10/12 04:05:38;;;;;;;20.98;15.55;;;;;;;12.93;80.41;98937.25;7392748;19;20039;-71
2022/10/12 04:08:05;;;;;;;22.38;16.05;;;;;;;12.87;80.66;98937.88;7393145;19;20023;-71
2022/10/12 04:10:32;;;;;;;20.42;14.77;;;;;;;12.81;80.77;98936.66;7391450;19;20822;-71
2022/10/12 04:12:58;;;;;;;21.05;15.63;;;;;;;12.84;80.73;98936.34;7388323;19;20140;-71
2022/10/12 04:15:25;;;;;;;19.98;14.93;;;;;;;12.91;80.60;98944.53;7386660;19;20071;-71
2022/10/12 04:17:52;;;;;;;19.83;14.75;;;;;;;12.94;80.39;98941.56;7391498;19;20142;-71
2022/10/12 04:20:18;;;;;;;18.20;14.32;;;;;;;12.88;80.52;98936.88;7392386;19;20497;-71
2022/10/12 04:22:45;;;;;;;23.38;15.10;;;;;;;12.81;80.69;98933.19;7392833;19;20018;-71
2022/10/12 04:25:12;;;;;;;22.90;15.13;;;;;;;12.81;81.03;98935.84;7390120;19;20540;-71
2022/10/12 04:27:39;;;;;;;19.33;15.55;;;;;;;12.82;81.08;98938.34;7389716;19;20488;-71
2022/10/12 04:30:06;;;;;;;24.77;17.42;;;;;;;12.91;81.03;98939.22;7394141;19;20082;-71
2022/10/12 04:32:33;;;;;;;25.88;16.65;;;;;;;13.00;81.04;98946.25;7390883;19;20014;-71
2022/10/12 04:35:00;;;;;;;25.23;18.08;;;;;;;13.03;80.83;98942.44;7389125;19;20011;-71
2022/10/12 04:37:26;;;;;;;30.95;16.55;;;;;;;13.06;80.74;98939.47;7391098;19;20446;-71
2022/10/12 04:39:53;;;;;;;38.03;18.25;;;;;;;13.01;80.72;98947.94;7388187;19;20010;-71
2022/10/12 04:42:20;;;;;;;22.58;16.77;;;;;;;13.04;80.95;98949.44;7391561;19;20031;-71
2022/10/12 04:44:47;;;;;;;24.23;16.63;;;;;;;13.10;80.97;98948.78;7391596;19;20078;-71
2022/10/12 04:47:14;;;;;;;20.98;15.20;;;;;;;13.11;80.87;98948.66;7389285;19;20074;-71
2022/10/12 04:49:40;;;;;;;19.45;15.73;;;;;;;13.11;80.57;98946.00;7389287;19;20547;-71
2022/10/12 04:52:07;;;;;;;23.55;16.48;;;;;;;13.13;80.57;98946.66;7391498;19;20042;-71
2022/10/12 04:54:34;;;;;;;27.85;16.20;;;;;;;13.17;80.62;98949.84;7388241;19;20019;-71
2022/10/12 04:57:01;;;;;;;24.77;16.65;;;;;;;13.18;80.48;98951.50;7388840;19;20031;-71
2022/10/12 04:59:27;;;;;;;32.92;16.98;;;;;;;13.20;80.50;98960.16;7390771;19;20077;-71
2022/10/12 05:01:54;;;;;;;29.35;18.00;;;;;;;13.22;80.59;98952.84;7388012;19;20047;-71
2022/10/12 05:04:20;;;;;;;23.38;17.55;;;;;;;13.24;80.37;98950.84;7388782;19;20031;-71
2022/10/12 05:06:47;;;;;;;26.88;18.27;;;;;;;13.29;80.27;98959.22;7387023;19;20784;-71
2022/10/12 05:09:14;;;;;;;26.83;17.52;;;;;;;13.29;80.31;98961.88;7386031;19;20021;-72
2022/10/12 05:11:43;;;;;;;25.58;18.30;;;;;;;13.28;80.48;98957.56;7389810;19;20031;-71
2022/10/12 05:14:09;;;;;;;32.10;19.58;;;;;;;13.27;80.63;98957.69;7386853;19;20030;-71
2022/10/12 05:16:36;;;;;;;28.52;17.98;;;;;;;13.31;80.66;98954.56;7391549;19;20022;-71
2022/10/12 05:19:03;;;;;;;29.63;18.50;;;;;;;13.32;80.60;98958.06;7391848;19;20017;-71
2022/10/12 05:21:30;;;;;;;26.95;19.25;;;;;;;13.36;80.19;98957.59;7384771;19;20066;-71
2022/10/12 05:23:56;;;;;;;26.77;18.40;;;;;;;13.37;80.23;98953.94;7382179;19;20039;-71
2022/10/12 05:26:23;;;;;;;28.88;17.55;;;;;;;13.38;80.02;98954.78;7390530;19;20045;-71
2022/10/12 05:28:50;;;;;;;27.33;19.70;;;;;;;13.35;79.90;98955.13;7386139;19;20035;-71
2022/10/12 05:31:16;;;;;;;33.30;19.65;;;;;;;13.32;79.90;98958.06;7390876;19;20014;-71
2022/10/12 05:33:43;;;;;;;24.10;17.35;;;;;;;13.33;80.20;98962.41;7388623;19;20025;-71
2022/10/12 05:36:10;;;;;;;23.98;17.70;;;;;;;13.34;80.13;98954.25;7387886;19;20679;-71
2022/10/12 05:38:37;;;;;;;27.88;18.00;;;;;;;13.28;80.35;98956.72;7387923;19;20057;-71
2022/10/12 05:41:04;;;;;;;24.48;16.38;;;;;;;13.26;80.44;98948.03;7388112;19;20015;-71
2022/10/12 05:43:31;;;;;;;26.63;16.77;;;;;;;13.27;80.64;98955.91;7388993;19;20509;-71
2022/10/12 05:45:57;;;;;;;22.70;15.82;;;;;;;13.29;80.73;98948.59;7392231;19;20056;-71
2022/10/12 05:48:24;;;;;;;23.52;16.20;;;;;;;13.30;80.77;98955.59;7390680;19;20010;-72
2022/10/12 05:50:53;;;;;;;23.77;16.63;;;;;;;13.38;80.68;98960.09;7390427;19;20394;-71
2022/10/12 05:53:20;;;;;;;26.75;17.20;;;;;;;13.44;80.75;98956.78;7388444;19;20018;-72
2022/10/12 05:55:58;;;;;;;23.45;17.13;;;;;;;13.46;80.55;98961.97;7390232;19;20041;-71
2022/10/12 05:58:27;;;;;;;24.38;15.35;;;;;;;13.51;80.37;98971.13;7387127;19;20557;-71
2022/10/12 06:00:54;;;;;;;24.08;17.35;;;;;;;13.50;80.29;98972.09;7387860;19;20490;-71
2022/10/12 06:03:21;;;;;;;21.55;15.93;;;;;;;13.53;80.23;98977.13;7390671;19;20018;-71
2022/10/12 06:05:51;;;;;;;21.75;15.48;;;;;;;13.51;80.46;98973.78;7390694;19;20416;-72
2022/10/12 06:08:18;;;;;;;23.60;15.70;;;;;;;13.52;80.51;98975.44;7389076;19;20022;-71
2022/10/12 06:10:48;;;;;;;21.67;15.05;;;;;;;13.58;80.30;98974.78;7390955;19;20032;-71
2022/10/12 06:13:16;;;;;;;25.00;15.98;;;;;;;13.60;80.43;98974.63;7385984;19;20026;-72
2022/10/12 06:15:44;;;;;;;24.35;15.50;;;;;;;13.63;80.14;98976.97;7388216;19;20014;-71
2022/10/12 06:18:12;;;;;;;24.70;16.73;;;;;;;13.67;80.34;98972.19;7389099;19;20525;-72
2022/10/12 06:20:39;;;;;;;24.30;16.45;;;;;;;13.71;80.22;98973.50;7387878;19;20039;-71
2022/10/12 06:23:06;;;;;;;22.67;15.93;;;;;;;13.77;79.96;98973.72;7387318;19;20019;-71
2022/10/12 06:25:32;;;;;;;21.85;16.23;;;;;;;13.78;79.87;98971.88;7391956;19;20660;-71
2022/10/12 06:27:59;;;;;;;23.38;16.13;;;;;;;13.80;79.87;98973.38;7384186;19;20011;-71
2022/10/12 06:30:26;;;;;;;25.10;16.50;;;;;;;13.83;79.79;98969.56;7389669;19;20048;-71
2022/10/12 06:32:53;;;;;;;19.92;15.35;;;;;;;13.86;79.46;98976.41;7390597;19;20670;-72
2022/10/12 06:35:19;;;;;;;22.10;16.10;;;;;;;13.91;79.21;98971.44;7389119;19;20018;-72
2022/10/12 06:37:49;;;;;;;20.75;15.63;;;;;;;13.92;78.95;98981.88;7388946;19;20022;-72
2022/10/12 06:40:17;;;;;;;25.15;16.23;;;;;;;13.92;78.99;98973.06;7387590;19;20039;-72
2022/10/12 06:42:44;;;;;;;23.67;15.35;;;;;;;13.95;78.64;98975.41;7388798;19;20035;-71
2022/10/12 06:45:11;;;;;;;22.63;16.77;;;;;;;13.94;78.67;98977.25;7389684;19;20380;-71
2022/10/12 06:47:37;;;;;;;23.60;16.85;;;;;;;13.95;79.00;98976.22;7385904;19;20018;-71
2022/10/12 06:50:05;;;;;;;21.88;16.83;;;;;;;14.05;79.03;98982.25;7387481;19;20380;-71
2022/10/12 06:52:32;;;;;;;28.88;18.20;;;;;;;14.11;78.61;98982.59;7388908;19;20026;-71
2022/10/12 06:54:58;;;;;;;22.10;15.27;;;;;;;14.13;78.74;98981.44;7387974;19;20019;-71
2022/10/12 06:57:25;;;;;;;19.42;15.65;;;;;;;14.05;78.86;98976.09;7384261;19;20678;-71
2022/10/12 06:59:52;;;;;;;26.48;17.42;;;;;;;14.21;78.56;98985.94;7387896;19;20023;-71
2022/10/12 07:02:18;;;;;;;21.92;15.13;;;;;;;14.30;78.47;98981.44;7389711;19;20028;-71
2022/10/12 07:04:49;;;;;;;24.38;16.52;;;;;;;14.31;78.45;98980.47;7387213;19;20032;-72
2022/10/12 07:07:16;;;;;;;26.58;17.13;;;;;;;14.42;78.00;98980.13;7387093;19;20023;-71
2022/10/12 07:09:43;;;;;;;26.63;16.02;;;;;;;14.51;77.80;98981.81;7385337;19;20082;-71
2022/10/12 07:12:09;;;;;;;27.20;16.42;;;;;;;14.57;77.86;98973.19;7388060;19;20031;-71
2022/10/12 07:14:36;;;;;;;20.52;16.58;;;;;;;14.64;77.56;98976.00;7387871;19;20521;-71
2022/10/12 07:17:03;;;;;;;22.77;15.32;;;;;;;14.69;77.32;98984.34;7387413;19;20031;-71
2022/10/12 07:19:29;;;;;;;24.73;16.48;;;;;;;14.69;77.31;98979.00;7389361;19;20042;-71
2022/10/12 07:21:56;;;;;;;23.08;15.93;;;;;;;14.73;76.94;98983.00;7388828;19;20414;-72
2022/10/12 07:24:22;;;;;;;22.48;15.85;;;;;;;14.64;77.04;98982.19;7388240;19;20018;-72
2022/10/12 07:26:50;;;;;;;23.08;15.40;;;;;;;14.54;77.11;98986.03;7386332;19;20086;-71
2022/10/12 07:29:17;;;;;;;28.60;17.70;;;;;;;14.38;77.61;98977.00;7383636;19;20071;-71
2022/10/12 07:31:43;;;;;;;23.88;15.90;;;;;;;14.43;77.75;98989.81;7388649;19;20043;-71
2022/10/12 07:34:17;;;;;;;25.48;17.73;;;;;;;14.46;77.77;98984.97;7387299;19;20436;-72
2022/10/12 07:36:43;;;;;;;25.38;16.88;;;;;;;14.47;78.01;98989.28;7392434;19;20070;-72
2022/10/12 07:39:25;;;;;;;28.73;17.90;;;;;;;14.57;78.01;98986.50;7396406;19;20022;-72
2022/10/12 07:41:52;;;;;;;25.95;17.83;;;;;;;14.71;77.94;98980.50;7391361;19;20035;-72
2022/10/12 07:44:19;;;;;;;29.17;18.42;;;;;;;14.93;77.68;98984.34;7394859;19;20018;-72
2022/10/12 07:46:46;;;;;;;30.35;17.88;;;;;;;15.13;77.30;98978.63;7391960;19;20032;-72
2022/10/12 07:49:14;;;;;;;28.42;18.17;;;;;;;15.10;76.89;98981.63;7390151;19;20031;-71
2022/10/12 07:51:41;;;;;;;23.42;16.60;;;;;;;15.16;76.70;98980.94;7389131;19;20014;-72
2022/10/12 07:54:07;;;;;;;29.50;18.17;;;;;;;15.19;76.28;98975.25;7391110;19;20044;-72
2022/10/12 07:56:34;;;;;;;22.20;17.73;;;;;;;15.07;76.46;98987.31;7392021;19;20018;-72
2022/10/12 07:59:01;;;;;;;20.92;16.25;;;;;;;15.20;76.09;98984.94;7392971;19;20035;-72
2022/10/12 08:01:29;;;;;;;23.75;17.05;;;;;;;15.26;76.12;98980.75;7395455;19;20043;-72
2022/10/12 08:03:57;;;;;;;28.00;16.58;;;;;;;15.26;76.11;98983.44;7393234;19;20485;-72
2022/10/12 08:06:30;;;;;;;20.48;15.88;;;;;;;15.22;76.18;98982.09;7390519;19;20022;-71
2022/10/12 08:08:57;;;;;;;22.95;16.60;;;;;;;15.28;76.46;98982.25;7391376;19;20082;-72
2022/10/12 08:11:23;;;;;;;23.77;17.27;;;;;;;15.23;76.50;98981.94;7393277;19;20014;-72
2022/10/12 08:13:50;;;;;;;26.08;19.67;;;;;;;15.28;77.14;98984.09;7392439;19;20019;-72
2022/10/12 08:16:19;;;;;;;27.20;18.58;;;;;;;15.62;76.74;98985.66;7393671;19;20018;-72
2022/10/12 08:18:46;;;;;;;25.77;18.50;;;;;;;15.89;76.15;98990.53;7392809;19;20477;-71
2022/10/12 08:21:14;;;;;;;25.60;17.92;;;;;;;16.00;75.14;98989.31;7390056;19;20015;-72
2022/10/12 08:23:43;;;;;;;27.08;19.55;;;;;;;16.16;74.41;98991.06;7393377;19;20014;-72
2022/10/12 08:26:11;;;;;;;22.73;17.90;;;;;;;16.16;74.37;98989.22;7392647;19;20018;-72
2022/10/12 08:28:38;;;;;;;26.35;19.30;;;;;;;16.21;74.20;98988.69;7391497;19;21050;-72
2022/10/12 08:31:06;;;;;;;30.15;20.60;;;;;;;16.15;73.85;98984.88;7394600;19;20081;-71
2022/10/12 08:33:33;;;;;;;26.60;18.95;;;;;;;16.21;73.87;98994.84;7393949;19;20019;-72
2022/10/12 08:36:02;;;;;;;27.60;19.10;;;;;;;16.14;73.94;98990.41;7392548;19;20043;-72
2022/10/12 08:38:28;;;;;;;32.75;20.17;;;;;;;16.12;73.74;98987.91;7373082;19;20050;-72
2022/10/12 08:41:22;;;;;;;27.00;20.95;;;;;;;15.99;73.47;98993.00;7368963;19;20013;-72
2022/10/12 08:44:11;;;;;;;24.38;19.10;;;;;;;16.21;73.50;98989.50;7363000;19;20018;-72
2022/10/12 08:46:38;;;;;;;32.95;19.80;;;;;;;16.28;73.15;98981.66;7365853;19;20025;-72
2022/10/12 08:49:11;;;;;;;28.08;19.75;;;;;;;16.50;73.34;98987.16;7364820;19;20019;-72
2022/10/12 08:52:31;;;;;;;26.05;17.55;;;;;;;16.65;72.90;98988.03;7344523;19;20506;-72
2022/10/12 08:55:01;;;;;;;32.08;19.88;;;;;;;16.79;71.68;98983.78;7337816;19;20043;-72
2022/10/12 08:57:27;;;;;;;26.75;19.60;;;;;;;16.81;71.05;98977.25;7335354;19;20014;-72
2022/10/12 08:59:54;;;;;;;27.80;18.65;;;;;;;16.76;71.50;98979.59;7336467;19;20100;-70
2022/10/12 09:02:30;;;;;;;27.23;19.70;;;;;;;16.74;70.89;98967.41;7335883;19;20022;-72
2022/10/12 09:05:00;;;;;;;26.15;16.98;;;;;;;16.73;71.76;98973.78;7348522;19;20010;-71
2022/10/12 09:07:35;;;;;;;27.75;18.77;;;;;;;16.58;72.37;98966.53;7357440;19;20014;-72
2022/10/12 09:10:38;;;;;;;30.17;20.38;;;;;;;16.49;72.85;98967.63;7354981;19;20040;-72
2022/10/12 09:13:18;;;;;;;24.90;18.10;;;;;;;16.51;73.51;98962.09;7343710;19;20021;-72
2022/10/12 09:15:47;;;;;;;26.75;19.10;;;;;;;16.66;73.44;98961.13;7332201;19;20018;-72
2022/10/12 09:18:19;;;;;;;29.23;17.98;;;;;;;16.86;73.55;98966.84;7328563;19;20007;-72
2022/10/12 09:20:48;;;;;;;28.55;18.45;;;;;;;17.06;72.70;98967.16;7341761;19;20032;-72
2022/10/12 09:23:15;;;;;;;26.55;18.48;;;;;;;17.05;72.45;98970.81;7352348;19;20035;-72
2022/10/12 09:25:42;;;;;;;28.92;18.05;;;;;;;17.17;72.04;98968.53;7354353;19;20039;-72
2022/10/12 09:28:36;;;;;;;26.48;18.20;;;;;;;17.14;71.94;98970.72;7351213;19;20468;-72
2022/10/12 09:31:09;;;;;;;27.08;18.52;;;;;;;17.18;71.70;98980.06;7350856;19;22013;-72
2022/10/12 09:33:44;;;;;;;;;;;;;;;17.26;71.59;98974.63;7353043;19;20018;-72
2022/10/12 09:36:15;;;;;;;26.55;16.52;;;;;;;17.10;70.60;98971.09;7354306;19;19934;-71
2022/10/12 09:38:42;;;;;;;30.08;15.90;;;;;;;17.32;69.89;98979.22;7352293;19;20022;-72
2022/10/12 09:41:35;;;;;;;23.17;16.17;;;;;;;17.29;69.93;98987.63;7352023;19;20011;-72
2022/10/12 09:44:03;;;;;;;27.73;16.48;;;;;;;17.19;70.34;98981.72;7372967;19;20158;-71
2022/10/12 09:46:52;;;;;;;33.75;18.05;;;;;;;16.96;70.25;98977.28;7376016;19;21442;-71
2022/10/12 09:49:19;;;;;;;23.02;14.00;;;;;;;16.92;70.43;98986.66;7377486;19;20470;-71
2022/10/12 09:51:46;;;;;;;19.85;13.98;;;;;;;16.91;69.95;98986.84;7379828;19;20053;-72
2022/10/12 09:54:17;;;;;;;22.55;13.73;;;;;;;16.93;70.27;98977.66;7377769;19;20093;-72
2022/10/12 09:56:51;;;;;;;24.10;14.77;;;;;;;16.80;70.88;98986.28;7377402;19;20031;-71
2022/10/12 09:59:39;;;;;;;21.40;13.20;;;;;;;17.00;70.33;98981.22;7375660;19;20097;-72
2022/10/12 10:02:08;;;;;;;26.08;15.05;;;;;;;16.98;70.89;98983.28;7377497;19;21239;-72
2022/10/12 10:04:36;;;;;;;20.42;13.48;;;;;;;17.06;70.34;98985.00;7381657;19;21371;-71
2022/10/12 10:07:29;;;;;;;22.08;14.10;;;;;;;16.99;70.50;98987.59;7378578;19;20046;-72
2022/10/12 10:10:10;;;;;;;22.33;13.30;;;;;;;16.67;70.25;98989.53;7376417;19;20022;-72
2022/10/12 10:12:57;;;;;;;23.07;12.50;;;;;;;16.81;70.66;98984.44;7371432;19;20076;-72
2022/10/12 10:15:27;;;;;;;18.98;12.60;;;;;;;16.82;70.75;98986.06;7367599;19;20742;-72
2022/10/12 10:17:58;;;;;;;18.88;12.60;;;;;;;16.94;70.74;98987.31;7372161;19;20437;-72
2022/10/12 10:20:31;;;;;;;21.40;12.85;;;;;;;16.95;70.64;98991.63;7379613;19;20010;-72
2022/10/12 10:22:59;;;;;;;17.75;12.43;;;;;;;16.85;70.57;98988.38;7379524;19;20397;-72
2022/10/12 10:25:26;;;;;;;24.27;14.43;;;;;;;16.57;69.90;98986.25;7377290;19;20056;-71
2022/10/12 10:28:21;;;;;;;19.33;13.65;;;;;;;16.53;71.20;98987.63;7376856;19;20031;-72
2022/10/12 10:31:16;;;;;;;17.92;13.10;;;;;;;16.84;70.30;98979.53;7378290;19;20093;-72
2022/10/12 10:33:42;;;;;;;21.42;14.10;;;;;;;16.66;70.36;98979.84;7377078;19;20021;-71
2022/10/12 10:36:21;;;;;;;20.05;14.43;;;;;;;16.74;71.13;98988.78;7376902;19;20022;-72
2022/10/12 10:39:14;;;;;;;23.42;13.57;;;;;;;16.72;70.88;98985.47;7374245;19;20010;-71
2022/10/12 10:41:42;;;;;;;17.00;12.68;;;;;;;16.67;71.31;98978.84;7379478;19;20014;-72
2022/10/12 10:44:35;;;;;;;21.27;14.73;;;;;;;16.70;71.03;98980.31;7375874;19;20054;-71
2022/10/12 10:47:08;;;;;;;19.20;13.10;;;;;;;16.78;71.06;98984.78;7367052;19;20090;-72
2022/10/12 10:49:42;;;;;;;23.35;14.13;;;;;;;16.85;70.61;98983.03;7351226;19;20027;-72
2022/10/12 10:52:34;;;;;;;20.35;13.27;;;;;;;16.93;70.64;98983.00;7350288;19;20027;-72
2022/10/12 10:55:18;;;;;;;21.70;13.80;;;;;;;17.10;69.99;98980.97;7351590;19;20031;-72
2022/10/12 10:58:00;;;;;;;22.05;13.02;;;;;;;17.21;69.79;98977.03;7350390;19;21338;-73
2022/10/12 11:00:27;;;;;;;22.00;12.18;;;;;;;17.23;69.46;98977.69;7350506;19;20086;-73
2022/10/12 11:03:22;;;;;;;21.85;14.52;;;;;;;17.38;69.19;98977.66;7351511;19;20036;-73
2022/10/12 11:05:54;;;;;;;19.90;13.60;;;;;;;17.51;69.32;98977.88;7351547;19;20018;-73
2022/10/12 11:08:28;;;;;;;17.83;12.23;;;;;;;17.51;69.44;98973.34;7356807;19;20128;-73
2022/10/12 11:11:06;;;;;;;19.55;13.65;;;;;;;17.43;68.97;98969.91;7355957;19;20006;-73
2022/10/12 11:13:36;;;;;;;20.52;12.75;;;;;;;17.20;69.35;98973.53;7352519;19;20751;-73
2022/10/12 11:16:28;;;;;;;22.23;12.25;;;;;;;17.35;69.50;98973.50;7358668;19;20023;-73
2022/10/12 11:19:28;;;;;;;18.40;12.57;;;;;;;17.51;69.05;98970.66;7383625;19;20022;-72
2022/10/12 11:22:02;;;;;;;19.60;13.75;;;;;;;17.40;69.21;98971.09;7381570;19;20018;-72
2022/10/12 11:24:42;;;;;;;20.90;13.98;;;;;;;17.57;68.71;98966.41;7383064;19;20018;-73
2022/10/12 11:27:29;;;;;;;20.98;13.32;;;;;;;17.83;68.13;98967.78;7378977;19;20056;-73
2022/10/12 11:29:58;;;;;;;24.50;13.55;;;;;;;17.91;68.28;98965.84;7381075;19;20069;-73
2022/10/12 11:32:37;;;;;;;18.90;12.98;;;;;;;17.91;68.04;98967.69;7384477;19;20495;-72
2022/10/12 11:35:06;;;;;;;18.75;12.43;;;;;;;17.88;68.06;98963.53;7380999;19;20481;-73
2022/10/12 11:37:44;;;;;;;23.50;13.05;;;;;;;18.13;68.01;98955.97;7382673;19;20014;-73